createdAt,value
2023-01-26T00:00:15.783Z,93.60
2023-01-26T00:02:44.705Z,93.70
2023-01-26T00:05:13.341Z,94.00
2023-01-26T00:07:46.204Z,94.10
2023-01-26T00:10:15.979Z,94.50
2023-01-26T00:12:44.609Z,94.50
2023-01-26T00:15:13.494Z,94.60
2023-01-26T00:17:42.206Z,94.70
2023-01-26T00:20:11.925Z,95.10
2023-01-26T00:22:40.894Z,94.90
2023-01-26T00:25:10.225Z,95.00
2023-01-26T00:27:39.014Z,95.30
2023-01-26T00:30:08.238Z,95.20
2023-01-26T00:32:37.720Z,95.30
2023-01-26T00:35:07.485Z,95.40
2023-01-26T00:37:36.397Z,95.40
2023-01-26T00:40:05.206Z,95.40
2023-01-26T00:42:33.921Z,95.20
2023-01-26T00:45:02.660Z,95.10
2023-01-26T00:47:31.341Z,95.10
2023-01-26T00:50:00.000Z,95.00
2023-01-26T00:52:28.747Z,94.60
2023-01-26T00:54:57.398Z,94.40
2023-01-26T00:57:26.140Z,94.40
2023-01-26T00:59:54.843Z,94.20
2023-01-26T01:02:23.493Z,94.60
2023-01-26T01:04:52.269Z,94.20
2023-01-26T01:07:20.977Z,93.70
2023-01-26T01:09:49.631Z,93.60
2023-01-26T01:12:18.378Z,93.70
2023-01-26T01:14:47.011Z,93.50
2023-01-26T01:17:15.835Z,93.50
2023-01-26T01:19:44.584Z,93.30
2023-01-26T01:22:13.308Z,93.40
2023-01-26T01:24:42.040Z,93.20
2023-01-26T01:27:10.695Z,93.20
2023-01-26T01:29:39.491Z,93.00
2023-01-26T01:32:08.289Z,93.00
2023-01-26T01:34:37.078Z,93.00
2023-01-26T01:37:05.996Z,92.90
2023-01-26T01:39:34.650Z,93.10
2023-01-26T01:42:03.372Z,92.80
2023-01-26T01:44:32.225Z,93.70
2023-01-26T01:47:07.920Z,93.70
2023-01-26T01:49:41.410Z,93.70
2023-01-26T01:52:12.462Z,93.10
2023-01-26T01:54:45.781Z,93.20
2023-01-26T01:57:28.761Z,93.40
2023-01-26T02:00:06.624Z,93.20
2023-01-26T02:02:35.734Z,93.50
2023-01-26T02:05:18.745Z,93.10
2023-01-26T02:07:52.224Z,93.00
2023-01-26T02:10:22.451Z,93.30
2023-01-26T02:12:54.898Z,93.50
2023-01-26T02:15:23.786Z,93.00
2023-01-26T02:17:55.041Z,93.30
2023-01-26T02:20:38.290Z,93.10
2023-01-26T02:23:13.724Z,93.20
2023-01-26T02:25:52.995Z,93.20
2023-01-26T02:28:25.767Z,93.20
2023-01-26T02:30:57.452Z,93.20
2023-01-26T02:33:29.318Z,93.10
2023-01-26T02:35:58.182Z,93.00
2023-01-26T02:38:32.072Z,92.90
2023-01-26T02:41:06.988Z,92.80
2023-01-26T02:43:36.230Z,92.90
2023-01-26T02:46:05.119Z,92.60
2023-01-26T02:48:54.310Z,92.60
2023-01-26T02:51:23.060Z,92.70
2023-01-26T02:53:51.819Z,92.50
2023-01-26T02:56:20.498Z,92.80
2023-01-26T02:58:49.129Z,92.50
2023-01-26T03:01:17.871Z,92.50
2023-01-26T03:03:46.665Z,91.80
2023-01-26T03:06:16.289Z,91.70
2023-01-26T03:08:45.037Z,91.90
2023-01-26T03:11:13.748Z,92.00
2023-01-26T03:13:42.398Z,91.90
2023-01-26T03:16:12.889Z,91.50
2023-01-26T03:19:01.155Z,90.10
2023-01-26T03:21:49.414Z,88.90
2023-01-26T03:24:37.850Z,89.80
2023-01-26T03:27:27.286Z,89.70
2023-01-26T03:29:57.456Z,90.10
2023-01-26T03:32:27.014Z,88.80
2023-01-26T03:34:56.950Z,89.00
2023-01-26T03:37:25.744Z,89.40
2023-01-26T03:40:14.172Z,89.70
2023-01-26T03:43:02.440Z,89.00
2023-01-26T03:45:51.612Z,89.50
2023-01-26T03:48:39.884Z,89.70
2023-01-26T03:51:28.158Z,89.30
2023-01-26T03:54:16.763Z,89.60
2023-01-26T03:56:45.569Z,89.30
2023-01-26T03:59:16.279Z,88.00
2023-01-26T04:02:07.130Z,86.90
2023-01-26T04:04:55.587Z,89.10
2023-01-26T04:07:43.774Z,87.10
2023-01-26T04:10:12.937Z,86.20
2023-01-26T04:12:42.289Z,86.30
2023-01-26T04:15:30.965Z,85.80
2023-01-26T04:18:19.301Z,84.30
2023-01-26T04:21:07.798Z,82.50
2023-01-26T04:23:39.555Z,83.30
2023-01-26T04:26:08.214Z,83.60
2023-01-26T04:28:36.988Z,82.00
2023-01-26T04:31:05.850Z,85.30
2023-01-26T04:33:34.723Z,83.40
2023-01-26T04:36:06.659Z,82.20
2023-01-26T04:38:35.702Z,82.00
2023-01-26T04:41:04.412Z,83.30
2023-01-26T04:43:33.121Z,82.00
2023-01-26T04:46:05.502Z,82.00
2023-01-26T04:48:35.295Z,80.70
2023-01-26T04:51:06.916Z,80.70
2023-01-26T04:53:36.169Z,81.50
2023-01-26T04:56:04.992Z,82.40
2023-01-26T04:58:34.791Z,81.70
2023-01-26T05:01:03.416Z,81.10
2023-01-26T05:03:32.179Z,80.90
2023-01-26T05:06:01.873Z,81.00
2023-01-26T05:08:30.503Z,80.30
2023-01-26T05:10:59.773Z,76.50
2023-01-26T05:13:28.511Z,77.80
2023-01-26T05:15:57.228Z,78.40
2023-01-26T05:18:26.043Z,77.60
2023-01-26T05:20:54.717Z,77.80
2023-01-26T05:23:23.615Z,78.40
2023-01-26T05:25:52.583Z,78.80
2023-01-26T05:28:21.176Z,80.10
2023-01-26T05:30:50.171Z,81.40
2023-01-26T05:33:23.112Z,80.60
2023-01-26T05:35:52.967Z,79.40
2023-01-26T05:38:22.263Z,79.30
2023-01-26T05:40:50.969Z,79.70
2023-01-26T05:43:19.608Z,79.50
2023-01-26T05:45:48.375Z,80.70
2023-01-26T05:48:17.195Z,81.80
2023-01-26T05:50:46.618Z,80.30
2023-01-26T05:53:16.189Z,81.20
2023-01-26T05:55:45.411Z,81.40
2023-01-26T05:58:14.199Z,82.00
2023-01-26T06:00:43.023Z,82.10
2023-01-26T06:03:11.793Z,81.90
2023-01-26T06:05:40.564Z,80.20
2023-01-26T06:08:09.372Z,79.50
2023-01-26T06:10:38.187Z,78.80
2023-01-26T06:13:07.078Z,78.90
2023-01-26T06:15:40.027Z,79.30
2023-01-26T06:18:08.410Z,79.80
2023-01-26T06:20:37.072Z,79.60
2023-01-26T06:23:06.655Z,81.10
2023-01-26T06:25:35.398Z,80.30
2023-01-26T06:28:04.886Z,79.40
2023-01-26T06:30:35.572Z,80.90
2023-01-26T06:33:04.435Z,78.40
2023-01-26T06:35:33.024Z,78.30
2023-01-26T06:38:02.829Z,77.60
2023-01-26T06:40:31.653Z,77.40
2023-01-26T06:43:00.357Z,78.80
2023-01-26T06:45:29.522Z,77.10
2023-01-26T06:47:58.321Z,75.80
2023-01-26T06:50:32.990Z,75.80
2023-01-26T06:53:04.452Z,76.30
2023-01-26T06:55:42.827Z,76.00
2023-01-26T06:58:13.397Z,76.50
2023-01-26T07:00:42.098Z,76.50
2023-01-26T07:03:12.829Z,76.50
2023-01-26T07:05:41.593Z,78.10
2023-01-26T07:08:10.392Z,77.60
2023-01-26T07:10:39.810Z,77.60
2023-01-26T07:13:08.958Z,77.80
2023-01-26T07:15:37.749Z,76.80
2023-01-26T07:18:07.192Z,76.70
2023-01-26T07:20:35.829Z,75.80
2023-01-26T07:23:04.474Z,77.10
2023-01-26T07:25:33.147Z,76.40
2023-01-26T07:28:02.213Z,78.00
2023-01-26T07:30:31.036Z,76.30
2023-01-26T07:33:01.990Z,78.80
2023-01-26T07:35:31.004Z,75.50
2023-01-26T07:37:59.971Z,75.30
2023-01-26T07:40:28.565Z,75.30
2023-01-26T07:42:58.231Z,75.20
2023-01-26T07:45:27.212Z,77.10
2023-01-26T07:47:57.666Z,76.30
2023-01-26T07:50:28.003Z,75.10
2023-01-26T07:52:56.668Z,75.70
2023-01-26T07:55:27.303Z,74.60
2023-01-26T07:57:55.991Z,74.40
2023-01-26T08:00:24.786Z,74.70
2023-01-26T08:02:53.768Z,73.90
2023-01-26T08:05:22.619Z,73.20
2023-01-26T08:07:51.361Z,73.80
2023-01-26T08:10:20.267Z,73.80
2023-01-26T08:12:48.867Z,74.50
2023-01-26T08:15:17.603Z,75.20
2023-01-26T08:17:46.437Z,74.90
2023-01-26T08:20:15.143Z,74.30
2023-01-26T08:22:43.910Z,74.70
2023-01-26T08:25:12.668Z,74.50
2023-01-26T08:27:41.337Z,75.50
2023-01-26T08:30:11.108Z,75.00
2023-01-26T08:32:40.319Z,74.20
2023-01-26T08:35:12.006Z,75.40
2023-01-26T08:37:40.822Z,76.10
2023-01-26T08:40:10.547Z,74.20
2023-01-26T08:42:39.379Z,72.50
2023-01-26T08:45:09.067Z,75.00
2023-01-26T08:47:37.802Z,74.80
2023-01-26T08:50:06.894Z,72.90
2023-01-26T08:52:35.722Z,72.30
2023-01-26T08:55:05.691Z,72.50
2023-01-26T08:57:34.457Z,73.00
2023-01-26T09:00:03.257Z,72.30
2023-01-26T09:02:32.071Z,73.10
2023-01-26T09:05:00.884Z,74.30
2023-01-26T09:07:29.578Z,74.60
2023-01-26T09:09:58.320Z,76.00
2023-01-26T09:12:27.028Z,72.90
2023-01-26T09:14:55.736Z,72.50
2023-01-26T09:17:24.496Z,71.20
2023-01-26T09:19:53.203Z,70.70
2023-01-26T09:22:21.905Z,70.20
2023-01-26T09:24:50.828Z,71.00
2023-01-26T09:27:19.513Z,73.60
2023-01-26T09:29:48.251Z,73.70
2023-01-26T09:32:17.081Z,72.40
2023-01-26T09:34:46.203Z,73.40
2023-01-26T09:37:17.017Z,72.70
2023-01-26T09:39:46.077Z,71.40
2023-01-26T09:42:34.904Z,71.80
2023-01-26T09:45:05.506Z,72.90
2023-01-26T09:48:10.551Z,73.90
2023-01-26T09:51:04.690Z,73.00
2023-01-26T09:53:58.631Z,73.20
2023-01-26T09:56:30.760Z,73.30
2023-01-26T09:59:19.557Z,74.40
2023-01-26T10:02:03.148Z,74.70
2023-01-26T10:04:38.521Z,74.90
2023-01-26T10:07:14.666Z,74.80
2023-01-26T10:09:47.486Z,75.20
2023-01-26T10:12:19.238Z,76.00
2023-01-26T10:14:57.209Z,76.20
2023-01-26T10:17:39.596Z,76.00
2023-01-26T10:20:38.823Z,75.60
2023-01-26T10:23:24.400Z,76.10
2023-01-26T10:25:55.196Z,76.20
2023-01-26T10:28:39.504Z,76.70
2023-01-26T10:31:15.481Z,77.30
2023-01-26T10:33:53.753Z,77.40
2023-01-26T10:36:23.255Z,78.00
2023-01-26T10:38:53.550Z,78.20
2023-01-26T10:41:25.951Z,77.50
2023-01-26T10:43:58.405Z,79.70
2023-01-26T10:46:39.910Z,80.00
2023-01-26T10:49:13.261Z,80.70
2023-01-26T10:51:46.785Z,80.20
2023-01-26T10:54:30.741Z,80.90
2023-01-26T10:57:03.471Z,81.40
2023-01-26T10:59:40.055Z,81.70
2023-01-26T11:02:28.896Z,82.30
2023-01-26T11:05:14.428Z,82.60
2023-01-26T11:07:46.869Z,82.80
2023-01-26T11:10:33.905Z,83.10
2023-01-26T11:13:14.919Z,83.20
2023-01-26T11:15:46.699Z,83.70
2023-01-26T11:18:54.073Z,84.00
2023-01-26T11:21:34.718Z,83.90
2023-01-26T11:24:22.032Z,84.00
2023-01-26T11:27:10.920Z,84.00
2023-01-26T11:30:03.125Z,84.00
2023-01-26T11:32:45.695Z,84.00
2023-01-26T11:35:34.466Z,84.10
2023-01-26T11:38:23.978Z,84.30
2023-01-26T11:41:20.400Z,84.30
2023-01-26T11:44:07.046Z,84.30
2023-01-26T11:46:42.507Z,84.10
2023-01-26T11:49:46.813Z,84.10
2023-01-26T11:52:18.403Z,84.20
2023-01-26T11:55:06.874Z,84.20
2023-01-26T11:57:41.071Z,85.10
2023-01-26T12:00:30.098Z,86.00
2023-01-26T12:03:05.424Z,85.60
2023-01-26T12:05:45.803Z,85.40
2023-01-26T12:08:16.427Z,85.00
2023-01-26T12:11:27.247Z,84.80
2023-01-26T12:14:16.008Z,85.50
2023-01-26T12:16:51.060Z,85.60
2023-01-26T12:19:39.184Z,85.70
2023-01-26T12:22:34.149Z,85.90
2023-01-26T12:25:23.140Z,86.20
2023-01-26T12:28:04.265Z,86.30
2023-01-26T12:30:50.197Z,86.40
2023-01-26T12:33:19.323Z,86.30
2023-01-26T12:36:13.690Z,86.10
2023-01-26T12:38:50.800Z,86.30
2023-01-26T12:41:43.003Z,86.30
2023-01-26T12:44:39.981Z,86.70
2023-01-26T12:47:14.205Z,86.50
2023-01-26T12:49:52.902Z,86.60
2023-01-26T12:52:42.654Z,86.70
2023-01-26T12:55:22.483Z,86.50
2023-01-26T12:58:02.338Z,87.20
2023-01-26T13:00:34.099Z,87.20
2023-01-26T13:03:15.158Z,86.90
2023-01-26T13:06:20.192Z,87.20
2023-01-26T13:09:05.501Z,89.40
2023-01-26T13:11:44.105Z,88.80
2023-01-26T13:14:32.913Z,90.20
2023-01-26T13:17:26.685Z,89.60
2023-01-26T13:20:00.803Z,90.20
2023-01-26T13:22:31.629Z,90.20
2023-01-26T13:25:13.495Z,90.50
2023-01-26T13:30:34.202Z,90.50
2023-01-26T13:33:22.655Z,90.30
2023-01-26T13:35:54.863Z,90.30
2023-01-26T13:38:54.138Z,90.30
2023-01-26T13:44:24.928Z,89.80
2023-01-26T13:47:02.113Z,90.00
2023-01-26T13:49:46.351Z,90.00
2023-01-26T13:52:19.555Z,90.00
2023-01-26T13:54:55.712Z,89.90
2023-01-26T13:57:45.030Z,90.00
2023-01-26T14:00:14.738Z,90.00
2023-01-26T14:02:50.903Z,89.90
2023-01-26T14:05:25.293Z,89.90
2023-01-26T14:07:54.308Z,90.00
2023-01-26T14:10:25.085Z,90.30
2023-01-26T14:12:59.082Z,90.30
2023-01-26T14:15:34.757Z,90.20
2023-01-26T14:18:09.958Z,90.30
2023-01-26T14:20:40.876Z,90.50
2023-01-26T14:23:11.665Z,90.50
2023-01-26T14:25:42.857Z,90.30
2023-01-26T14:28:22.340Z,90.00
2023-01-26T14:31:02.546Z,89.80
2023-01-26T14:33:32.153Z,89.90
2023-01-26T14:36:04.184Z,90.20
2023-01-26T14:41:29.543Z,90.20
2023-01-26T14:44:02.918Z,90.00
2023-01-26T14:46:40.129Z,89.90
2023-01-26T14:49:14.557Z,90.00
2023-01-26T14:51:46.583Z,90.40
2023-01-26T14:54:33.742Z,90.50
2023-01-26T14:57:03.112Z,90.50
2023-01-26T14:59:40.584Z,90.30
2023-01-26T15:02:16.674Z,90.30
2023-01-26T15:04:52.603Z,90.30
2023-01-26T15:07:45.016Z,90.30
2023-01-26T15:10:35.146Z,90.40
2023-01-26T15:13:08.757Z,90.30
2023-01-26T15:15:40.373Z,90.30
2023-01-26T15:18:19.980Z,90.30
2023-01-26T15:21:01.139Z,90.50
2023-01-26T15:23:30.835Z,90.40
2023-01-26T15:26:08.117Z,90.40
2023-01-26T15:28:38.365Z,90.60
2023-01-26T15:31:07.700Z,90.50
2023-01-26T15:33:45.966Z,90.30
2023-01-26T15:36:32.084Z,90.50
2023-01-26T15:39:19.707Z,90.40
2023-01-26T15:42:09.119Z,90.50
2023-01-26T15:44:38.026Z,90.50
2023-01-26T15:47:09.938Z,90.60
2023-01-26T15:49:39.247Z,90.80
2023-01-26T15:52:17.567Z,90.70
2023-01-26T15:54:46.631Z,90.90
2023-01-26T15:57:15.880Z,90.80
2023-01-26T15:59:44.962Z,90.90
2023-01-26T16:02:19.807Z,90.90
2023-01-26T16:04:49.305Z,91.10
2023-01-26T16:07:19.737Z,91.00
2023-01-26T16:09:50.360Z,91.40
2023-01-26T16:12:31.874Z,92.10
2023-01-26T16:15:02.132Z,92.60
2023-01-26T16:17:32.089Z,93.20
2023-01-26T16:20:01.333Z,93.60
2023-01-26T16:22:30.251Z,93.20
2023-01-26T16:24:59.010Z,92.40
2023-01-26T16:27:27.757Z,92.10
2023-01-26T16:29:56.535Z,92.10
2023-01-26T16:32:30.404Z,91.80
2023-01-26T16:34:59.287Z,91.90
2023-01-26T16:37:27.880Z,91.80
2023-01-26T16:39:56.738Z,91.70
2023-01-26T16:42:25.647Z,91.90
2023-01-26T16:44:54.428Z,91.70
2023-01-26T16:47:23.199Z,92.00
2023-01-26T16:49:52.015Z,92.00
2023-01-26T16:52:20.751Z,91.90
2023-01-26T16:54:51.143Z,92.00
2023-01-26T16:57:19.934Z,92.00
2023-01-26T17:03:37.326Z,92.60
2023-01-26T17:06:06.703Z,92.10
2023-01-26T17:08:35.508Z,92.40
2023-01-26T17:11:04.266Z,92.00
2023-01-26T17:13:33.564Z,92.10
2023-01-26T17:16:02.362Z,92.50
2023-01-26T17:18:34.571Z,92.10
2023-01-26T17:21:04.796Z,92.00
2023-01-26T17:23:33.557Z,92.10
2023-01-26T17:26:02.820Z,92.40
2023-01-26T17:28:31.744Z,92.40
2023-01-26T17:31:01.555Z,92.20
2023-01-26T17:33:31.124Z,92.10
2023-01-26T17:36:03.455Z,92.10
2023-01-26T17:38:32.385Z,92.30
2023-01-26T17:41:01.512Z,92.30
2023-01-26T17:43:31.201Z,92.50
2023-01-26T17:46:11.497Z,92.40
2023-01-26T17:48:41.102Z,92.40
2023-01-26T17:51:13.533Z,92.60
2023-01-26T17:53:43.751Z,92.50
2023-01-26T17:56:15.451Z,92.40
2023-01-26T17:58:44.334Z,92.30
2023-01-26T18:01:13.288Z,92.50
2023-01-26T18:03:43.749Z,92.30
2023-01-26T18:06:13.167Z,92.40
2023-01-26T18:08:42.302Z,92.30
2023-01-26T18:11:14.154Z,92.40
2023-01-26T18:13:42.969Z,92.50
2023-01-26T18:16:18.445Z,92.30
2023-01-26T18:18:48.284Z,92.40
2023-01-26T18:21:21.503Z,92.40
2023-01-26T18:23:52.852Z,92.40
2023-01-26T18:26:24.432Z,92.40
2023-01-26T18:28:53.883Z,92.60
2023-01-26T18:31:24.583Z,93.00
2023-01-26T18:33:53.831Z,92.70
2023-01-26T18:36:23.054Z,92.60
2023-01-26T18:38:55.595Z,92.60
2023-01-26T18:41:25.666Z,92.50
2023-01-26T18:43:58.735Z,92.60
2023-01-26T18:46:28.042Z,92.40
2023-01-26T18:49:02.516Z,92.00
2023-01-26T18:51:33.631Z,92.30
2023-01-26T18:54:03.124Z,92.40
2023-01-26T18:56:32.517Z,92.20
2023-01-26T18:59:01.179Z,92.20
2023-01-26T19:01:30.037Z,92.20
2023-01-26T19:03:59.907Z,92.10
2023-01-26T19:06:29.904Z,92.20
2023-01-26T19:09:02.014Z,92.20
2023-01-26T19:11:33.023Z,92.10
2023-01-26T19:14:03.001Z,92.00
2023-01-26T19:16:32.121Z,92.00
2023-01-26T19:19:01.247Z,92.00
2023-01-26T19:21:31.357Z,92.00
2023-01-26T19:24:06.571Z,91.90
2023-01-26T19:26:36.078Z,92.10
2023-01-26T19:29:05.148Z,92.00
2023-01-26T19:31:34.123Z,91.90
2023-01-26T19:34:05.999Z,92.10
2023-01-26T19:36:37.269Z,92.00
2023-01-26T19:39:07.573Z,92.00
2023-01-26T19:41:36.511Z,92.00
2023-01-26T19:44:05.496Z,91.90
2023-01-26T19:46:34.511Z,92.00
2023-01-26T19:49:03.268Z,92.00
2023-01-26T19:51:32.383Z,92.00
2023-01-26T19:54:01.596Z,92.00
2023-01-26T19:56:33.530Z,92.00
2023-01-26T19:59:05.502Z,92.00
2023-01-26T20:01:35.042Z,92.00
2023-01-26T20:04:07.883Z,92.00
2023-01-26T20:06:38.004Z,92.00
2023-01-26T20:09:08.622Z,92.10
2023-01-26T20:11:37.557Z,92.00
2023-01-26T20:14:09.952Z,92.00
2023-01-26T20:16:39.139Z,92.00
2023-01-26T20:19:07.863Z,91.90
2023-01-26T20:21:36.766Z,92.00
2023-01-26T20:24:06.818Z,92.10
2023-01-26T20:26:37.002Z,92.10
2023-01-26T20:29:07.267Z,92.10
2023-01-26T20:31:36.073Z,92.10
2023-01-26T20:34:04.838Z,92.10
2023-01-26T20:36:35.404Z,92.20
2023-01-26T20:39:05.503Z,92.10
2023-01-26T20:41:34.791Z,92.10
2023-01-26T20:44:06.358Z,92.10
2023-01-26T20:46:38.789Z,92.10
2023-01-26T20:49:11.345Z,92.10
2023-01-26T20:51:43.432Z,92.40
2023-01-26T20:54:15.662Z,92.10
2023-01-26T20:56:46.796Z,92.10
2023-01-26T20:59:15.623Z,92.10
2023-01-26T21:01:44.454Z,92.10
2023-01-26T21:04:13.131Z,92.20
2023-01-26T21:09:24.731Z,92.10
2023-01-26T21:12:07.866Z,92.00
2023-01-26T21:14:36.816Z,92.10
2023-01-26T21:17:40.314Z,92.00
2023-01-26T21:20:09.918Z,92.10
2023-01-26T21:22:38.725Z,92.00
2023-01-26T21:25:07.836Z,92.00
2023-01-26T21:27:36.472Z,92.00
2023-01-26T21:30:06.338Z,92.00
2023-01-26T21:32:35.171Z,92.10
2023-01-26T21:35:03.821Z,92.00
2023-01-26T21:37:32.604Z,92.00
2023-01-26T21:40:01.330Z,91.90
2023-01-26T21:42:29.979Z,91.90
2023-01-26T21:45:18.415Z,91.90
2023-01-26T21:48:06.716Z,91.90
2023-01-26T21:50:56.063Z,91.90
2023-01-26T21:53:24.810Z,91.90
2023-01-26T21:55:53.549Z,92.00
2023-01-26T21:58:41.973Z,92.00
2023-01-26T22:01:13.908Z,92.10
2023-01-26T22:03:42.925Z,92.20
2023-01-26T22:06:11.711Z,92.30
2023-01-26T22:08:40.427Z,92.10
2023-01-26T22:11:09.141Z,92.20
2023-01-26T22:13:38.607Z,92.20
2023-01-26T22:16:07.673Z,92.40
2023-01-26T22:18:37.171Z,92.40
2023-01-26T22:21:06.614Z,92.60
2023-01-26T22:23:37.314Z,92.60
2023-01-26T22:26:09.889Z,92.50
2023-01-26T22:28:38.654Z,92.50
2023-01-26T22:31:08.808Z,92.60
2023-01-26T22:33:38.331Z,92.60
2023-01-26T22:36:09.430Z,92.50
2023-01-26T22:38:39.031Z,92.50
2023-01-26T22:41:08.819Z,92.70
2023-01-26T22:43:37.579Z,92.80
2023-01-26T22:46:08.858Z,92.60
2023-01-26T22:48:37.577Z,92.50
2023-01-26T22:51:16.165Z,92.50
2023-01-26T22:53:46.152Z,92.90
2023-01-26T22:56:15.050Z,92.70
2023-01-26T22:58:57.147Z,92.50
2023-01-26T23:01:28.258Z,92.70
2023-01-26T23:03:58.854Z,92.50
2023-01-26T23:06:27.970Z,92.60
2023-01-26T23:08:59.119Z,92.50
2023-01-26T23:11:30.230Z,92.60
2023-01-26T23:14:00.102Z,92.50
2023-01-26T23:16:29.730Z,92.70
2023-01-26T23:19:00.209Z,92.90
2023-01-26T23:21:30.599Z,93.00
2023-01-26T23:23:59.579Z,93.00
2023-01-26T23:26:28.677Z,92.70
2023-01-26T23:28:57.402Z,92.60
2023-01-26T23:31:26.167Z,92.70
2023-01-26T23:33:54.994Z,92.80
2023-01-26T23:36:23.636Z,93.30
2023-01-26T23:38:53.541Z,93.60
2023-01-26T23:41:22.426Z,93.30
2023-01-26T23:43:51.154Z,93.30
2023-01-26T23:46:20.021Z,93.80
2023-01-26T23:48:48.713Z,93.80
2023-01-26T23:51:17.342Z,93.80
2023-01-26T23:53:46.066Z,93.80
2023-01-26T23:56:17.626Z,94.10
2023-01-26T23:58:46.856Z,94.10
